RJBT

Tajima

Airport
ICAO code
RJBT
IATA Code
TJH
Summary
ICAO Region
APAC
ICAO Territory
Location

Toyooka, Hogo Prefecture

Serving
Toyooka
Elevation
578 ft
Coordinates
35° 30' 58" N , 134° 47' 22" E
KCC
Metar
Observation
RJBT 030843Z VRB01KT 9999 VCSH FEW010 SCT020 BKN030 04/01 Q1018 RMK 1CU010 3CU020 5CU030 A3007
Station
Tajima
Date/Time
2023-02-03 08:43:00
Wind speed
01 kts
Lowest cloud amount
few clouds
Temperature
4°C
Dew point
1°C
Humidity
80%
QNH
1018 hPa
Weather condition
in vicinity: showers

Tajima Airport, also known as Kounotori Tajima Airport, is 2.6 nm southwest of Toyooka, Hyogo Prefecture, Japan.

Climatology

Humid Sub-tropical climate (Köppen climate classification Cfa)

Runways

Designator Length Width Surface Rops
1/19 1200 30 ASP Yes/Yes

Airport map

Aerial View

SKYbrary Partners:

Safety knowledge contributed by: